Time;durP1;ratioP1;P1;durP2;ratioP2;P2;SDS_P1;SDS_P2;PMS_P1;PMS_P2;Temp;Humidity;BMP_temperature;BMP_pressure;BME280_temperature;BME280_humidity;BME280_pressure;Samples;Min_cycle;Max_cycle;Signal;HPM_P1;HPM_P2
2022/06/08 00:00:15;;;;;;;6.60;5.40;;;21.20;46.10;;;;;;5055419;28;20419;-38
2022/06/08 00:02:44;;;;;;;6.83;5.90;;;21.20;46.10;;;;;;5055279;28;20415;-36
2022/06/08 00:05:10;;;;;;;7.70;6.30;;;21.20;46.10;;;;;;5055130;28;21162;-37
2022/06/08 00:07:36;;;;;;;6.77;6.07;;;21.10;46.30;;;;;;5055228;28;20420;-38
2022/06/08 00:10:04;;;;;;;7.83;6.40;;;21.10;46.30;;;;;;5055517;28;20412;-38
2022/06/08 00:12:30;;;;;;;7.07;5.80;;;21.00;46.40;;;;;;5055068;28;20435;-36
2022/06/08 00:14:56;;;;;;;7.87;7.07;;;21.00;46.40;;;;;;5054955;28;20470;-38
2022/06/08 00:17:22;;;;;;;7.53;6.10;;;21.00;46.40;;;;;;5054979;28;20177;-38
2022/06/08 00:19:48;;;;;;;8.20;6.20;;;21.00;46.30;;;;;;5055065;28;20915;-38
2022/06/08 00:22:14;;;;;;;10.07;6.93;;;21.00;46.30;;;;;;5054936;28;20423;-37
2022/06/08 00:24:40;;;;;;;7.60;5.60;;;20.90;46.30;;;;;;5054786;28;20415;-37
2022/06/08 00:27:06;;;;;;;6.60;5.47;;;20.90;46.30;;;;;;5054877;28;20443;-37
2022/06/08 00:29:32;;;;;;;7.13;6.43;;;20.80;46.30;;;;;;5054854;28;20435;-38
2022/06/08 00:31:58;;;;;;;7.13;6.00;;;20.80;46.50;;;;;;5054648;28;20435;-38
2022/06/08 00:34:24;;;;;;;8.60;6.60;;;20.80;46.60;;;;;;5054909;28;20509;-37
2022/06/08 00:36:50;;;;;;;7.10;5.87;;;19.70;46.00;;;;;;5054711;28;20407;-37
2022/06/08 00:39:16;;;;;;;6.80;5.20;;;20.70;46.40;;;;;;5054613;28;20470;-37
2022/06/08 00:41:57;;;;;;;8.90;6.80;;;20.70;46.50;;;;;;5054513;28;20498;-37
2022/06/08 00:44:30;;;;;;;8.90;6.80;;;20.60;46.40;;;;;;5054086;28;20184;-37
2022/06/08 00:46:59;;;;;;;7.37;6.67;;;20.50;46.60;;;;;;5054485;28;20482;-37
2022/06/08 00:49:43;;;;;;;8.93;7.03;;;20.50;46.60;;;;;;5054500;28;20426;-38
2022/06/08 00:52:11;;;;;;;7.13;5.93;;;20.50;46.60;;;;;;5054661;28;20424;-38
2022/06/08 00:54:41;;;;;;;8.20;5.63;;;20.50;46.70;;;;;;5054167;28;20450;-38
2022/06/08 00:57:31;;;;;;;7.10;6.40;;;20.40;46.70;;;;;;5054255;28;20442;-38
2022/06/08 01:00:28;;;;;;;8.47;6.20;;;20.40;46.50;;;;;;5054300;28;20503;-38
2022/06/08 01:02:54;;;;;;;8.70;6.60;;;20.30;46.50;;;;;;5053329;28;20462;-38
2022/06/08 01:05:57;;;;;;;7.77;7.07;;;20.30;46.70;;;;;;5055008;28;20440;-39
2022/06/08 01:08:44;;;;;;;7.50;5.90;;;20.20;46.60;;;;;;5054117;28;20418;-38
2022/06/08 01:11:20;;;;;;;7.45;6.55;;;20.20;46.80;;;;;;5053982;28;20419;-38
2022/06/08 01:13:46;;;;;;;9.40;6.60;;;20.10;46.80;;;;;;5053984;28;20215;-38
2022/06/08 01:16:13;;;;;;;6.07;5.00;;;20.10;46.80;;;;;;5053844;28;20392;-39
2022/06/08 01:18:40;;;;;;;9.10;7.50;;;20.10;46.80;;;;;;5053908;28;20406;-39
2022/06/08 01:21:21;;;;;;;6.47;5.87;;;20.00;46.90;;;;;;5053828;28;21133;-39
2022/06/08 01:24:00;;;;;;;8.00;6.63;;;20.00;47.00;;;;;;5053795;28;20411;-39
2022/06/08 01:26:43;;;;;;;8.27;6.70;;;20.00;47.00;;;;;;5054097;28;20415;-38
2022/06/08 01:29:37;;;;;;;7.22;6.15;;;19.90;47.10;;;;;;5053936;28;20223;-37
2022/06/08 01:32:33;;;;;;;7.40;6.60;;;20.00;47.00;;;;;;5053852;28;20188;-38
2022/06/08 01:35:27;;;;;;;6.30;5.30;;;19.90;46.90;;;;;;5052692;28;20241;-37
2022/06/08 01:38:10;;;;;;;7.13;5.97;;;19.90;46.90;;;;;;5053701;28;20487;-37
2022/06/08 01:40:45;;;;;;;7.07;5.80;;;19.90;47.00;;;;;;5053481;28;20388;-37
2022/06/08 01:43:41;;;;;;;5.82;5.15;;;19.80;46.70;;;;;;5053671;28;20196;-37
2022/06/08 01:46:28;;;;;;;7.60;6.23;;;19.80;46.80;;;;;;5053478;28;20180;-37
2022/06/08 01:49:21;;;;;;;7.38;6.00;;;19.80;46.90;;;;;;5053331;28;20407;-37
2022/06/08 01:52:08;;;;;;;7.20;5.90;;;19.80;47.00;;;;;;5053658;28;20602;-47
2022/06/08 01:54:58;;;;;;;8.07;7.10;;;19.80;47.30;;;;;;5052503;28;20197;-37
2022/06/08 01:57:32;;;;;;;10.43;7.25;;;19.80;47.30;;;;;;5053115;28;20177;-37
2022/06/08 02:00:04;;;;;;;7.18;6.25;;;19.80;47.30;;;;;;5053602;28;20180;-37
2022/06/08 02:02:51;;;;;;;8.70;6.82;;;19.80;47.60;;;;;;5053440;28;20190;-37
2022/06/08 02:05:42;;;;;;;9.45;7.53;;;19.80;47.50;;;;;;5052986;28;20162;-38
2022/06/08 02:08:28;;;;;;;11.07;6.93;;;19.80;47.60;;;;;;5052984;28;20181;-37
2022/06/08 02:11:32;;;;;;;8.30;6.35;;;19.80;47.70;;;;;;5052964;28;20161;-37
2022/06/08 02:14:20;;;;;;;9.20;6.65;;;19.80;47.60;;;;;;5052700;28;20235;-37
2022/06/08 02:16:51;;;;;;;7.78;6.45;;;19.80;47.40;;;;;;5052887;28;20629;-37
2022/06/08 02:19:34;;;;;;;9.00;7.88;;;19.80;47.60;;;;;;5052814;28;20188;-37
2022/06/08 02:22:25;;;;;;;7.93;6.00;;;19.80;47.60;;;;;;5052792;28;20185;-37
2022/06/08 02:25:13;;;;;;;8.27;6.77;;;19.80;47.60;;;;;;5052643;28;20392;-37
2022/06/08 02:27:54;;;;;;;6.90;5.97;;;19.80;47.60;;;;;;5052629;28;20408;-37
2022/06/08 02:30:24;;;;;;;8.60;6.05;;;19.80;47.70;;;;;;5052745;28;20189;-37
2022/06/08 02:35:50;;;;;;;7.35;6.55;;;19.80;47.70;;;;;;5052546;28;20454;-37
2022/06/08 02:38:20;;;;;;;7.45;6.75;;;19.80;47.60;;;;;;5052736;28;20185;-37
2022/06/08 02:40:55;;;;;;;7.27;6.57;;;19.80;47.70;;;;;;5052397;28;20714;-37
2022/06/08 02:43:53;;;;;;;9.23;7.77;;;19.80;47.60;;;;;;5052443;28;20434;-37
2022/06/08 02:46:43;;;;;;;7.82;6.88;;;19.80;47.70;;;;;;5051653;28;20435;-37
2022/06/08 02:49:09;;;;;;;9.20;7.55;;;19.80;48.40;;;;;;5052323;28;20165;-37
2022/06/08 02:51:36;;;;;;;7.65;6.65;;;19.80;47.80;;;;;;5052201;28;20205;-37
2022/06/08 02:54:06;;;;;;;9.05;7.47;;;19.80;47.60;;;;;;5051994;28;20208;-37
2022/06/08 02:56:53;;;;;;;7.88;6.28;;;19.80;47.70;;;;;;5052367;28;20249;-37
2022/06/08 02:59:27;;;;;;;8.25;6.43;;;19.80;47.80;;;;;;5052154;28;20173;-37
2022/06/08 03:02:04;;;;;;;8.20;6.50;;;19.80;47.80;;;;;;5052013;28;20288;-37
2022/06/08 03:04:40;;;;;;;7.93;5.85;;;19.80;47.90;;;;;;5052082;28;20161;-37
2022/06/08 03:07:16;;;;;;;8.40;6.75;;;19.70;47.90;;;;;;5052117;28;20167;-37
2022/06/08 03:09:43;;;;;;;7.38;6.30;;;19.80;47.90;;;;;;5052065;28;20158;-38
2022/06/08 03:12:20;;;;;;;8.13;6.67;;;19.70;48.00;;;;;;5051733;28;20206;-38
2022/06/08 03:14:47;;;;;;;9.95;7.25;;;19.70;47.90;;;;;;5034275;28;20451;-39
2022/06/08 03:17:16;;;;;;;7.53;6.60;;;19.70;47.90;;;;;;5051832;28;20173;-39
2022/06/08 03:19:42;;;;;;;8.98;6.57;;;19.70;48.00;;;;;;5052189;28;20181;-39
2022/06/08 03:22:07;;;;;;;7.78;5.85;;;19.70;47.90;;;;;;5051845;28;20193;-39
2022/06/08 03:24:34;;;;;;;8.10;7.07;;;19.70;48.00;;;;;;5051753;28;20535;-39
2022/06/08 03:27:08;;;;;;;9.50;7.22;;;19.70;48.00;;;;;;5051730;28;20584;-39
2022/06/08 03:29:34;;;;;;;8.27;6.50;;;19.70;47.90;;;;;;5051996;28;20368;-38
2022/06/08 03:32:00;;;;;;;8.10;6.70;;;19.70;48.20;;;;;;5051771;28;20759;-39
2022/06/08 03:34:26;;;;;;;7.15;6.45;;;19.70;48.10;;;;;;5051679;28;20451;-38
2022/06/08 03:36:53;;;;;;;9.52;7.63;;;19.70;48.10;;;;;;5051846;28;20178;-39
2022/06/08 03:39:19;;;;;;;8.93;7.30;;;19.70;48.20;;;;;;5051778;28;20794;-37
2022/06/08 03:41:45;;;;;;;6.97;4.88;;;19.70;48.20;;;;;;5051720;28;20237;-38
2022/06/08 03:44:12;;;;;;;7.00;5.60;;;19.70;48.20;;;;;;5051854;28;20177;-37
2022/06/08 03:46:43;;;;;;;10.32;6.57;;;19.70;48.00;;;;;;5051715;28;20188;-37
2022/06/08 03:49:09;;;;;;;8.35;7.50;;;19.70;48.00;;;;;;5051987;28;20537;-37
2022/06/08 03:51:38;;;;;;;7.60;5.97;;;19.70;48.10;;;;;;5051639;28;20192;-37
2022/06/08 03:54:14;;;;;;;8.35;6.60;;;19.70;48.10;;;;;;5051385;28;20201;-37
2022/06/08 03:56:41;;;;;;;8.80;7.20;;;19.70;48.20;;;;;;5051944;28;20383;-39
2022/06/08 03:59:07;;;;;;;9.10;6.82;;;19.70;48.20;;;;;;5051653;28;20173;-38
2022/06/08 04:01:33;;;;;;;9.63;7.57;;;19.60;48.20;;;;;;5051825;28;20197;-39
2022/06/08 04:03:59;;;;;;;8.73;6.25;;;19.70;48.40;;;;;;5051410;28;20252;-38
2022/06/08 04:06:25;;;;;;;8.13;6.17;;;19.70;48.40;;;;;;5051403;28;20252;-39
2022/06/08 04:08:52;;;;;;;9.30;7.13;;;19.70;48.50;;;;;;5051636;28;20408;-39
2022/06/08 04:11:18;;;;;;;9.27;6.43;;;19.70;48.60;;;;;;5052449;28;20199;-37
2022/06/08 04:13:44;;;;;;;7.38;6.63;;;19.80;48.40;;;;;;5051719;28;20407;-37
2022/06/08 04:16:10;;;;;;;7.60;6.30;;;19.80;48.40;;;;;;5051261;28;20281;-37
2022/06/08 04:18:35;;;;;;;9.63;6.63;;;19.80;48.50;;;;;;5052827;28;20275;-37
2022/06/08 04:21:06;;;;;;;9.23;6.90;;;19.80;48.60;;;;;;5054937;28;20403;-37
2022/06/08 04:23:32;;;;;;;8.82;7.22;;;19.80;48.40;;;;;;5055168;28;20177;-38
2022/06/08 04:25:59;;;;;;;9.10;7.03;;;19.90;48.60;;;;;;5054897;28;20177;-38
2022/06/08 04:28:26;;;;;;;8.73;6.07;;;19.90;48.80;;;;;;5054865;28;20176;-36
2022/06/08 04:30:52;;;;;;;9.27;6.60;;;19.90;48.80;;;;;;5054870;28;20252;-39
2022/06/08 04:33:18;;;;;;;9.25;6.53;;;19.90;48.70;;;;;;5055165;28;20224;-38
2022/06/08 04:35:44;;;;;;;10.43;7.10;;;19.90;48.80;;;;;;5055054;28;20640;-39
2022/06/08 04:38:11;;;;;;;8.32;7.13;;;20.00;48.70;;;;;;5054593;28;20205;-39
2022/06/08 04:40:37;;;;;;;10.50;7.13;;;20.10;49.00;;;;;;5054623;28;20332;-38
2022/06/08 04:43:04;;;;;;;8.37;7.43;;;20.20;48.80;;;;;;5054567;28;20432;-39
2022/06/08 04:45:30;;;;;;;9.60;7.65;;;20.20;48.70;;;;;;5054363;28;20504;-39
2022/06/08 04:47:56;;;;;;;8.90;8.00;;;20.30;48.90;;;;;;5054550;28;20208;-39
2022/06/08 04:50:22;;;;;;;9.10;6.97;;;20.30;48.70;;;;;;5054772;28;20419;-38
2022/06/08 04:52:48;;;;;;;10.53;8.10;;;20.30;48.50;;;;;;5054408;28;20609;-39
2022/06/08 04:55:15;;;;;;;9.27;7.70;;;20.40;48.60;;;;;;5054185;28;20963;-37
2022/06/08 04:57:40;;;;;;;7.20;6.50;;;20.40;48.90;;;;;;5054298;28;20490;-38
2022/06/08 05:00:11;;;;;;;6.60;5.77;;;20.40;48.20;;;;;;5054369;28;20836;-39
2022/06/08 05:02:44;;;;;;;7.03;5.83;;;20.40;48.20;;;;;;5054280;28;20189;-39
2022/06/08 05:05:28;;;;;;;7.28;5.82;;;20.50;48.30;;;;;;5054292;28;20408;-38
2022/06/08 05:07:55;;;;;;;7.17;5.53;;;20.50;48.40;;;;;;5054187;28;20173;-39
2022/06/08 05:10:24;;;;;;;5.73;4.93;;;20.60;48.10;;;;;;5054179;28;20404;-38
2022/06/08 05:12:50;;;;;;;8.07;5.50;;;20.70;48.10;;;;;;5054254;28;20434;-39
2022/06/08 05:15:25;;;;;;;6.57;5.33;;;20.80;48.00;;;;;;5053949;28;20208;-39
2022/06/08 05:17:51;;;;;;;9.90;6.90;;;20.90;47.70;;;;;;5053910;28;20964;-39
2022/06/08 05:20:18;;;;;;;7.17;5.90;;;21.00;47.60;;;;;;5053970;28;20396;-39
2022/06/08 05:22:45;;;;;;;15.83;6.50;;;21.00;47.60;;;;;;5054079;28;20264;-39
2022/06/08 05:25:15;;;;;;;7.53;5.67;;;21.10;47.60;;;;;;5053750;28;20465;-38
2022/06/08 05:27:41;;;;;;;7.43;5.83;;;21.20;47.60;;;;;;5053958;28;20749;-37
2022/06/08 05:30:10;;;;;;;8.63;6.73;;;21.20;47.20;;;;;;5052606;28;20415;-37
2022/06/08 05:32:37;;;;;;;6.97;5.40;;;21.30;47.20;;;;;;5053695;28;20419;-37
2022/06/08 05:35:04;;;;;;;6.93;5.23;;;21.40;47.10;;;;;;5053350;28;20459;-37
2022/06/08 05:37:30;;;;;;;5.57;4.70;;;21.40;47.00;;;;;;5053474;28;20408;-38
2022/06/08 05:39:56;;;;;;;5.97;4.80;;;21.50;46.80;;;;;;5053502;28;20737;-38
2022/06/08 05:42:23;;;;;;;5.67;5.07;;;21.60;46.80;;;;;;5053427;28;20204;-38
2022/06/08 05:44:49;;;;;;;5.37;4.57;;;21.70;46.60;;;;;;5053618;28;20404;-39
2022/06/08 05:47:16;;;;;;;5.07;4.57;;;21.80;46.50;;;;;;5053598;28;20410;-39
2022/06/08 05:49:43;;;;;;;5.47;4.57;;;21.90;46.40;;;;;;5053344;28;21176;-39
2022/06/08 05:52:09;;;;;;;5.13;4.63;;;21.90;45.80;;;;;;5053577;28;20439;-39
2022/06/08 05:54:35;;;;;;;7.20;5.13;;;21.90;46.10;;;;;;5053367;28;20452;-39
2022/06/08 05:57:01;;;;;;;5.57;5.03;;;22.10;46.20;;;;;;5053201;28;20419;-38
2022/06/08 05:59:27;;;;;;;6.73;4.80;;;22.20;45.90;;;;;;5053503;28;20914;-37
2022/06/08 06:01:53;;;;;;;5.00;4.27;;;22.30;45.70;;;;;;5053144;28;20470;-38
2022/06/08 06:04:19;;;;;;;5.07;3.60;;;22.40;45.50;;;;;;5035062;28;20181;-38
2022/06/08 06:06:48;;;;;;;4.77;3.93;;;22.50;45.10;;;;;;5053014;28;20493;-37
2022/06/08 06:09:17;;;;;;;5.53;5.00;;;22.60;44.20;;;;;;5053191;28;20734;-37
2022/06/08 06:11:44;;;;;;;5.40;4.30;;;22.70;44.90;;;;;;5053071;28;20463;-38
2022/06/08 06:14:10;;;;;;;6.23;4.30;;;22.90;45.60;;;;;;5052673;28;20412;-37
2022/06/08 06:16:36;;;;;;;5.60;3.60;;;22.90;43.20;;;;;;5053169;28;20403;-37
2022/06/08 06:19:03;;;;;;;5.17;4.50;;;23.00;43.80;;;;;;5052785;28;20434;-38
2022/06/08 06:21:29;;;;;;;4.97;3.50;;;23.10;44.10;;;;;;5052971;28;20428;-38
2022/06/08 06:23:56;;;;;;;5.10;4.07;;;23.20;43.50;;;;;;5052624;28;20396;-37
2022/06/08 06:26:23;;;;;;;3.67;3.27;;;23.20;42.60;;;;;;5052992;28;20515;-38
2022/06/08 06:28:49;;;;;;;4.63;3.90;;;23.30;43.20;;;;;;5052524;28;20760;-38
2022/06/08 06:31:19;;;;;;;4.40;3.93;;;23.30;43.00;;;;;;5052730;28;20517;-38
2022/06/08 06:33:45;;;;;;;4.17;3.53;;;23.40;42.60;;;;;;5052688;28;20946;-38
2022/06/08 06:36:10;;;;;;;4.70;3.20;;;23.40;42.40;;;;;;5052515;28;20448;-37
2022/06/08 06:38:37;;;;;;;5.50;4.50;;;23.40;42.60;;;;;;5052361;28;20169;-38
2022/06/08 06:41:02;;;;;;;4.00;3.27;;;23.60;42.30;;;;;;5052122;28;20181;-37
2022/06/08 06:43:28;;;;;;;3.67;3.23;;;23.60;42.30;;;;;;5052368;28;20795;-39
2022/06/08 06:45:54;;;;;;;5.40;4.37;;;23.70;42.80;;;;;;5052590;28;20181;-39
2022/06/08 06:48:20;;;;;;;5.00;3.87;;;23.90;43.00;;;;;;5052320;28;20173;-40
2022/06/08 06:50:46;;;;;;;4.57;3.30;;;24.10;43.00;;;;;;5052315;28;20507;-39
2022/06/08 06:53:13;;;;;;;5.90;3.20;;;24.30;43.20;;;;;;5052839;28;20423;-39
2022/06/08 06:55:39;;;;;;;4.10;2.37;;;24.40;42.30;;;;;;5051974;28;20455;-39
2022/06/08 06:58:06;;;;;;;3.20;2.17;;;24.50;41.60;;;;;;5052106;28;20404;-39
2022/06/08 07:00:34;;;;;;;5.57;2.70;;;24.70;40.70;;;;;;5052399;28;20831;-38
2022/06/08 07:03:00;;;;;;;3.30;2.30;;;24.70;40.40;;;;;;5052058;28;20427;-39
2022/06/08 07:05:30;;;;;;;2.80;2.13;;;24.70;40.50;;;;;;5051959;28;20432;-39
2022/06/08 07:07:56;;;;;;;2.60;2.00;;;24.80;40.10;;;;;;5052006;28;20410;-39
2022/06/08 07:10:22;;;;;;;2.90;1.97;;;24.80;39.70;;;;;;5052050;28;20408;-39
2022/06/08 07:12:48;;;;;;;2.60;1.93;;;24.90;39.80;;;;;;5052084;28;20426;-39
2022/06/08 07:15:17;;;;;;;2.60;1.97;;;25.00;39.50;;;;;;5051910;28;20443;-39
2022/06/08 07:17:43;;;;;;;3.80;2.30;;;25.10;39.00;;;;;;5051871;28;20410;-39
2022/06/08 07:20:10;;;;;;;2.80;1.63;;;25.10;39.30;;;;;;5051892;28;20400;-39
2022/06/08 07:22:36;;;;;;;4.03;1.47;;;25.10;39.40;;;;;;5051860;28;20185;-39
2022/06/08 07:25:04;;;;;;;2.53;1.30;;;25.20;38.60;;;;;;5051974;28;20404;-39
2022/06/08 07:27:29;;;;;;;2.30;1.27;;;25.30;38.80;;;;;;5051843;28;20408;-40
2022/06/08 07:29:55;;;;;;;1.70;0.97;;;25.30;38.20;;;;;;5051970;28;20407;-40
2022/06/08 07:32:21;;;;;;;6.03;1.40;;;25.30;36.30;;;;;;5051977;28;20193;-39
2022/06/08 07:34:47;;;;;;;2.20;1.03;;;25.50;38.10;;;;;;5051566;28;20204;-39
2022/06/08 07:37:13;;;;;;;1.80;1.10;;;25.60;38.10;;;;;;5051981;28;20248;-40
2022/06/08 07:39:39;;;;;;;1.80;1.00;;;25.70;38.40;;;;;;5051920;28;20657;-40
2022/06/08 07:42:06;;;;;;;1.90;1.00;;;25.90;37.70;;;;;;5051595;28;20957;-39
2022/06/08 07:44:32;;;;;;;2.10;1.20;;;25.90;36.50;;;;;;5033807;28;20440;-40
2022/06/08 07:46:58;;;;;;;2.40;1.23;;;26.00;36.30;;;;;;5051798;28;20443;-40
2022/06/08 07:49:36;;;;;;;2.30;1.20;;;26.10;37.10;;;;;;5051599;28;20404;-39
2022/06/08 07:52:13;;;;;;;2.00;1.30;;;26.10;37.00;;;;;;5051622;28;20430;-39
2022/06/08 07:54:40;;;;;;;2.63;1.30;;;26.20;37.00;;;;;;5055061;28;20474;-39
2022/06/08 07:57:08;;;;;;;2.90;1.40;;;26.30;37.10;;;;;;5055587;28;20501;-39
2022/06/08 07:59:36;;;;;;;2.33;1.10;;;26.50;37.00;;;;;;5055552;28;20403;-39
2022/06/08 08:02:04;;;;;;;2.00;0.90;;;26.60;36.40;;;;;;5055414;28;20447;-40
2022/06/08 08:04:30;;;;;;;2.27;1.40;;;26.80;37.00;;;;;;5055208;28;20769;-39
2022/06/08 08:06:56;;;;;;;2.17;1.20;;;26.90;36.70;;;;;;5055267;28;20904;-39
2022/06/08 08:09:23;;;;;;;2.20;1.13;;;27.00;35.90;;;;;;5055433;28;20410;-40
2022/06/08 08:11:51;;;;;;;1.90;1.10;;;27.00;35.60;;;;;;5055288;28;20225;-40
2022/06/08 08:14:19;;;;;;;1.70;0.90;;;27.10;35.70;;;;;;5054920;28;20419;-39
2022/06/08 08:16:45;;;;;;;1.90;1.03;;;27.10;34.80;;;;;;5055107;28;20403;-39
2022/06/08 08:19:13;;;;;;;2.90;1.00;;;27.10;35.00;;;;;;5055133;28;20395;-39
2022/06/08 08:21:39;;;;;;;2.00;1.10;;;27.20;35.30;;;;;;5055128;28;20420;-40
2022/06/08 08:24:06;;;;;;;2.73;0.83;;;27.20;34.90;;;;;;5055117;28;20911;-40
2022/06/08 08:26:33;;;;;;;1.60;1.00;;;27.20;34.90;;;;;;5055049;28;20545;-40
2022/06/08 08:28:59;;;;;;;1.67;0.93;;;27.10;35.50;;;;;;5054851;28;20415;-39
2022/06/08 08:31:25;;;;;;;1.50;0.87;;;27.00;35.70;;;;;;5054771;28;20415;-40
2022/06/08 08:33:51;;;;;;;1.90;1.13;;;26.90;35.30;;;;;;5055116;28;20444;-40
2022/06/08 08:36:18;;;;;;;7.70;1.40;;;26.80;35.40;;;;;;5054730;28;20482;-40
2022/06/08 08:38:45;;;;;;;2.90;1.07;;;26.70;35.60;;;;;;5054637;28;20177;-40
2022/06/08 08:44:27;;;;;;;2.10;1.50;;;26.70;35.80;;;;;;5054586;28;20772;-39
2022/06/08 08:47:02;;;;;;;4.40;0.97;;;26.60;35.80;;;;;;5054538;28;20461;-40
2022/06/08 08:49:32;;;;;;;1.60;0.90;;;26.50;35.70;;;;;;5054936;28;20418;-40
2022/06/08 08:52:01;;;;;;;2.00;1.00;;;26.40;36.10;;;;;;5056052;28;20427;-40
2022/06/08 08:54:35;;;;;;;1.90;1.33;;;26.50;35.70;;;;;;5055136;28;20536;-40
2022/06/08 08:57:19;;;;;;;2.10;1.33;;;26.60;36.20;;;;;;5054688;28;20391;-40
2022/06/08 08:59:48;;;;;;;1.87;1.50;;;26.90;36.30;;;;;;5054526;28;20380;-40
2022/06/08 09:05:13;;;;;;;1.60;1.10;;;27.00;36.70;;;;;;5054350;28;20426;-39
2022/06/08 09:07:38;;;;;;;1.70;0.87;;;26.90;35.80;;;;;;5054219;28;20424;-39
2022/06/08 09:10:05;;;;;;;1.90;0.90;;;26.80;36.00;;;;;;5054441;28;20481;-40
2022/06/08 09:12:30;;;;;;;1.77;1.07;;;26.80;36.60;;;;;;5054322;28;20509;-40
2022/06/08 09:15:01;;;;;;;2.30;1.20;;;26.80;35.50;;;;;;5053834;28;20502;-39
2022/06/08 09:17:36;;;;;;;4.57;1.10;;;26.70;35.60;;;;;;5054004;28;20181;-40
2022/06/08 09:20:16;;;;;;;1.67;1.07;;;26.70;35.60;;;;;;5054150;28;20403;-40
2022/06/08 09:22:47;;;;;;;1.90;1.10;;;26.60;35.50;;;;;;5054014;28;20415;-39
2022/06/08 09:25:28;;;;;;;1.90;1.10;;;26.50;35.30;;;;;;5053843;28;20400;-39
2022/06/08 09:27:56;;;;;;;2.00;1.00;;;26.50;35.80;;;;;;5053969;28;20441;-40
2022/06/08 09:30:25;;;;;;;1.60;1.00;;;26.40;36.20;;;;;;5053793;28;20412;-40
2022/06/08 09:32:54;;;;;;;3.40;2.00;;;26.40;36.30;;;;;;5053732;28;20415;-40
2022/06/08 09:35:33;;;;;;;1.90;1.17;;;26.30;36.10;;;;;;5053631;28;21078;-40
2022/06/08 09:38:14;;;;;;;1.73;0.90;;;26.30;36.10;;;;;;5053910;28;20694;-40
2022/06/08 09:41:04;;;;;;;2.00;1.03;;;26.20;35.90;;;;;;5053553;28;20404;-38
2022/06/08 09:43:39;;;;;;;1.80;1.23;;;26.20;35.90;;;;;;5053616;28;20475;-38
2022/06/08 09:46:07;;;;;;;1.67;0.80;;;26.10;36.60;;;;;;5053446;28;20392;-38
2022/06/08 09:51:45;;;;;;;1.73;1.13;;;26.10;37.00;;;;;;5053466;28;20478;-38
2022/06/08 09:54:18;;;;;;;2.27;1.20;;;26.10;37.30;;;;;;5053213;28;20449;-38
2022/06/08 09:57:12;;;;;;;5.13;1.30;;;26.00;37.20;;;;;;5053350;28;20415;-38
2022/06/08 09:59:56;;;;;;;2.07;1.23;;;26.00;36.90;;;;;;5053229;28;20400;-38
2022/06/08 10:02:40;;;;;;;2.43;1.10;;;25.90;36.70;;;;;;5053166;28;20423;-38
2022/06/08 10:05:22;;;;;;;2.13;1.10;;;25.90;36.70;;;;;;5053194;28;20419;-39
2022/06/08 10:08:14;;;;;;;1.80;0.97;;;25.90;36.80;;;;;;5053332;28;20388;-38
2022/06/08 10:10:46;;;;;;;2.30;1.27;;;26.00;37.30;;;;;;5053097;28;20485;-39
2022/06/08 10:13:20;;;;;;;2.10;1.40;;;25.90;37.20;;;;;;5052785;28;20518;-38
2022/06/08 10:16:04;;;;;;;1.90;1.23;;;25.90;37.50;;;;;;5052465;28;20546;-39
2022/06/08 10:18:41;;;;;;;1.97;1.03;;;26.00;37.80;;;;;;5052811;28;20388;-40
2022/06/08 10:21:18;;;;;;;2.10;1.13;;;26.00;37.80;;;;;;5053055;28;20479;-39
2022/06/08 10:24:00;;;;;;;1.97;1.30;;;26.00;37.70;;;;;;5052864;28;20489;-39
2022/06/08 10:26:35;;;;;;;3.03;1.57;;;26.00;37.90;;;;;;5052791;28;20924;-40
2022/06/08 10:29:45;;;;;;;2.10;1.30;;;26.00;38.10;;;;;;5052695;28;20486;-39
2022/06/08 10:32:17;;;;;;;1.90;1.40;;;26.00;37.90;;;;;;4990955;28;20579;-39
2022/06/08 10:34:43;;;;;;;1.70;1.00;;;26.00;37.90;;;;;;4990843;28;20902;-40
2022/06/08 10:37:33;;;;;;;1.80;1.20;;;26.00;37.90;;;;;;4990920;28;20440;-40
2022/06/08 10:40:00;;;;;;;1.90;1.10;;;26.00;38.20;;;;;;4991034;28;20883;-39
2022/06/08 10:42:41;;;;;;;2.40;1.53;;;25.90;38.00;;;;;;4990682;28;20491;-39
2022/06/08 10:45:30;;;;;;;2.80;1.57;;;26.00;38.50;;;;;;4990755;28;20416;-39
2022/06/08 10:48:01;;;;;;;1.83;1.10;;;26.00;38.90;;;;;;4990786;28;20395;-39
2022/06/08 10:50:30;;;;;;;1.77;1.23;;;26.00;39.00;;;;;;4990821;28;20418;-39
2022/06/08 10:54:53;;;;;;;2.13;1.30;;;26.10;38.90;;;;;;4990704;28;20986;-39
2022/06/08 10:55:43;;;;;;;2.07;1.00;;;26.10;38.60;;;;;;4990684;28;20944;-40
2022/06/08 10:58:17;;;;;;;2.07;1.60;;;26.20;38.40;;;;;;4990610;28;20413;-39
2022/06/08 11:00:51;;;;;;;1.93;1.17;;;26.30;37.90;;;;;;4990694;28;20418;-39
2022/06/08 11:03:49;;;;;;;1.67;1.10;;;26.30;37.70;;;;;;5032281;28;20514;-40
2022/06/08 11:06:54;;;;;;;1.87;1.30;;;26.50;37.80;;;;;;5034172;28;20461;-40
2022/06/08 11:09:46;;;;;;;1.70;1.10;;;26.60;37.30;;;;;;5048444;28;20903;-39
2022/06/08 11:12:12;;;;;;;1.80;1.13;;;26.90;37.00;;;;;;5044040;28;20443;-40
2022/06/08 11:14:44;;;;;;;2.80;1.50;;;26.90;37.00;;;;;;5051805;28;20443;-40
2022/06/08 11:17:39;;;;;;;1.70;0.97;;;27.10;37.40;;;;;;5051973;28;20173;-39
2022/06/08 11:20:35;;;;;;;1.80;1.30;;;27.40;37.30;;;;;;5051991;28;20418;-40
2022/06/08 11:23:12;;;;;;;1.90;1.40;;;27.70;36.60;;;;;;5034127;28;20784;-40
2022/06/08 11:26:11;;;;;;;2.13;1.23;;;28.00;36.80;;;;;;5051798;28;20453;-40
2022/06/08 11:28:40;;;;;;;2.03;1.10;;;28.20;36.00;;;;;;5055395;28;20565;-40
2022/06/08 11:31:32;;;;;;;2.60;1.20;;;28.40;35.40;;;;;;5056258;28;20412;-40
2022/06/08 11:34:19;;;;;;;1.90;1.13;;;28.70;34.90;;;;;;5055793;28;20915;-39
2022/06/08 11:37:12;;;;;;;2.83;1.00;;;28.70;33.10;;;;;;5056141;28;20411;-40
2022/06/08 11:39:58;;;;;;;2.00;1.03;;;28.90;32.50;;;;;;5056330;28;20403;-40
2022/06/08 11:42:29;;;;;;;2.20;1.33;;;29.10;33.70;;;;;;5055601;28;20454;-40
2022/06/08 11:45:19;;;;;;;2.97;1.70;;;29.20;32.70;;;;;;5037730;28;20412;-40
2022/06/08 11:48:07;;;;;;;4.43;1.17;;;29.40;32.90;;;;;;5046596;28;20426;-40
2022/06/08 11:50:49;;;;;;;2.63;1.40;;;29.60;32.30;;;;;;5055711;28;20885;-40
2022/06/08 11:53:31;;;;;;;3.33;1.63;;;29.70;32.40;;;;;;5055611;28;20928;-40
2022/06/08 11:56:17;;;;;;;2.17;1.57;;;29.80;32.40;;;;;;5055597;28;20511;-40
2022/06/08 11:58:55;;;;;;;2.13;1.40;;;30.00;32.60;;;;;;5055818;28;20388;-39
2022/06/08 12:01:38;;;;;;;2.00;1.53;;;30.10;32.60;;;;;;5055350;28;20460;-40
2022/06/08 12:04:08;;;;;;;2.10;1.10;;;30.30;32.60;;;;;;5055272;28;20436;-40
2022/06/08 12:06:39;;;;;;;2.33;1.43;;;30.40;31.50;;;;;;5055607;28;20396;-39
2022/06/08 12:09:28;;;;;;;4.00;1.40;;;30.40;30.60;;;;;;5055351;28;20407;-40
2022/06/08 12:12:00;;;;;;;2.13;1.40;;;30.50;31.20;;;;;;5055006;28;20830;-40
2022/06/08 12:14:35;;;;;;;1.73;1.07;;;30.60;29.70;;;;;;5055186;28;20405;-39
2022/06/08 12:17:27;;;;;;;2.30;1.60;;;30.70;30.00;;;;;;5055358;28;20484;-40
2022/06/08 12:19:56;;;;;;;2.67;1.67;;;30.80;29.90;;;;;;5055093;28;20412;-39
2022/06/08 12:22:34;;;;;;;2.13;1.70;;;30.80;29.00;;;;;;5055221;28;20443;-39
2022/06/08 12:25:09;;;;;;;2.40;1.70;;;30.80;29.40;;;;;;5055094;28;20495;-40
2022/06/08 12:27:46;;;;;;;2.17;1.40;;;30.60;27.90;;;;;;5055682;28;20868;-40
2022/06/08 12:30:23;;;;;;;2.60;1.80;;;30.30;27.60;;;;;;5055008;28;20496;-40
2022/06/08 12:32:53;;;;;;;2.17;1.77;;;30.00;28.70;;;;;;5054878;28;20432;-40
2022/06/08 12:35:29;;;;;;;2.10;1.40;;;29.70;28.70;;;;;;5054848;28;20465;-40
2022/06/08 12:38:23;;;;;;;1.83;1.43;;;29.60;29.60;;;;;;5054811;28;20419;-40
2022/06/08 12:41:06;;;;;;;2.50;1.80;;;29.60;29.80;;;;;;5052206;28;20425;-40
2022/06/08 12:43:39;;;;;;;2.40;1.50;;;29.50;29.60;;;;;;5054968;28;20425;-39
2022/06/08 12:46:22;;;;;;;2.60;1.57;;;29.50;29.80;;;;;;5054833;28;20478;-40
2022/06/08 12:48:51;;;;;;;1.80;1.00;;;29.50;30.30;;;;;;5054574;28;20569;-40
2022/06/08 12:51:28;;;;;;;1.90;1.40;;;29.40;30.00;;;;;;5054463;28;20423;-40
2022/06/08 12:53:55;;;;;;;2.00;1.20;;;29.30;30.80;;;;;;5055569;28;20400;-40
2022/06/08 12:56:22;;;;;;;2.40;1.33;;;29.30;31.30;;;;;;5054278;28;20459;-40
2022/06/08 12:58:52;;;;;;;2.77;1.47;;;29.30;31.70;;;;;;5054473;28;20409;-40
2022/06/08 13:01:20;;;;;;;1.90;1.43;;;29.20;31.30;;;;;;5054278;28;20779;-39
2022/06/08 13:03:47;;;;;;;2.70;1.60;;;29.20;31.70;;;;;;5054408;28;20408;-40
2022/06/08 13:06:13;;;;;;;3.40;2.00;;;29.10;31.70;;;;;;5054187;28;20966;-40
2022/06/08 13:08:39;;;;;;;2.23;1.47;;;29.00;31.40;;;;;;5054296;28;20414;-39
2022/06/08 13:11:14;;;;;;;1.90;1.40;;;28.90;31.60;;;;;;5054109;28;20410;-40
2022/06/08 13:13:40;;;;;;;2.10;1.53;;;28.90;31.60;;;;;;5054230;28;20388;-39
2022/06/08 13:16:21;;;;;;;1.70;1.17;;;28.70;32.10;;;;;;5053807;28;20455;-40
2022/06/08 13:18:48;;;;;;;2.50;1.83;;;28.70;31.90;;;;;;5054157;28;20384;-40
2022/06/08 13:21:14;;;;;;;2.87;1.37;;;28.70;31.80;;;;;;5054180;28;20810;-40
2022/06/08 13:23:40;;;;;;;2.13;1.40;;;28.60;31.50;;;;;;5054095;28;20416;-40
2022/06/08 13:26:27;;;;;;;2.20;1.60;;;28.60;31.90;;;;;;5053879;28;20489;-40